Time;durP1;ratioP1;P1;durP2;ratioP2;P2;SDS_P1;SDS_P2;PMS_P1;PMS_P2;Temp;Humidity;BMP_temperature;BMP_pressure;BME280_temperature;BME280_humidity;BME280_pressure;Samples;Min_cycle;Max_cycle;Signal;HPM_P1;HPM_P2
2023/09/15 00:02:12;;;;;;;2.78;1.95;;;;;;;11.39;100.00;101948.53;6226480;28;20107;-74
2023/09/15 00:05:14;;;;;;;3.85;1.95;;;;;;;11.37;100.00;101953.00;6226499;28;20042;-73
2023/09/15 00:08:16;;;;;;;3.42;2.38;;;;;;;11.39;100.00;101948.53;6225857;28;20472;-72
2023/09/15 00:11:19;;;;;;;2.35;1.77;;;;;;;11.36;100.00;101949.50;6226370;28;20430;-73
2023/09/15 00:14:21;;;;;;;3.67;2.08;;;;;;;11.34;100.00;101953.97;6226292;28;20046;-73
2023/09/15 00:17:25;;;;;;;3.58;2.15;;;;;;;11.30;100.00;101952.34;6226244;28;20068;-73
2023/09/15 00:20:26;;;;;;;5.25;2.72;;;;;;;11.28;100.00;101948.94;6226022;28;20054;-73
2023/09/15 00:23:28;;;;;;;5.43;2.00;;;;;;;11.23;100.00;101950.03;6226042;28;20111;-73
2023/09/15 00:26:30;;;;;;;6.38;2.53;;;;;;;11.15;100.00;101948.53;6226287;28;20056;-74
2023/09/15 00:29:31;;;;;;;4.85;2.53;;;;;;;11.13;100.00;101949.50;6225711;28;20057;-73
2023/09/15 00:32:34;;;;;;;3.08;2.13;;;;;;;11.11;100.00;101946.91;6226196;28;20054;-73
2023/09/15 00:35:36;;;;;;;7.15;2.28;;;;;;;11.05;100.00;101949.78;6225889;28;20461;-73
2023/09/15 00:38:37;;;;;;;2.53;2.30;;;;;;;11.09;100.00;101947.91;6225798;28;20068;-74
2023/09/15 00:41:38;;;;;;;2.75;2.08;;;;;;;11.09;100.00;101945.28;6225850;28;20057;-73
2023/09/15 00:44:40;;;;;;;4.15;2.45;;;;;;;11.08;100.00;101949.69;6225942;28;20046;-73
2023/09/15 00:47:46;;;;;;;3.90;2.50;;;;;;;11.06;100.00;101937.47;6225869;28;20050;-74
2023/09/15 00:50:47;;;;;;;4.03;2.00;;;;;;;10.98;100.00;101942.16;6229802;28;20057;-73
2023/09/15 00:53:49;;;;;;;3.95;2.20;;;;;;;10.91;100.00;101944.16;6230738;28;20061;-73
2023/09/15 00:56:51;;;;;;;3.13;2.05;;;;;;;10.90;100.00;101934.53;6230867;28;20060;-73
2023/09/15 00:59:53;;;;;;;2.42;1.85;;;;;;;10.93;100.00;101937.06;6230375;28;20072;-74
2023/09/15 01:02:56;;;;;;;4.18;2.63;;;;;;;10.89;100.00;101940.69;6224374;28;20072;-72
2023/09/15 01:05:57;;;;;;;7.45;2.60;;;;;;;10.91;100.00;101931.00;6230107;28;20353;-71
2023/09/15 01:09:00;;;;;;;3.70;1.98;;;;;;;10.92;100.00;101932.72;6251399;23;20327;-70
2023/09/15 01:12:04;;;;;;;4.82;2.50;;;;;;;10.90;100.00;101929.25;6230034;28;20053;-71
2023/09/15 01:15:07;;;;;;;3.00;2.20;;;;;;;10.91;100.00;101936.25;6230156;28;20046;-71
2023/09/15 01:18:20;;;;;;;7.50;2.13;;;;;;;10.89;100.00;101940.69;6230105;28;20049;-71
2023/09/15 01:22:13;;;;;;;2.95;2.03;;;;;;;10.92;100.00;101938.81;6205659;28;20435;-71
2023/09/15 01:25:34;;;;;;;2.88;1.98;;;;;;;10.92;100.00;101933.56;6200392;28;20058;-70
2023/09/15 01:29:03;;;;;;;5.70;2.20;;;;;;;10.91;100.00;101928.38;6205335;28;20054;-71
2023/09/15 01:32:10;;;;;;;3.17;2.35;;;;;;;10.86;100.00;101922.41;6205717;28;20090;-71
2023/09/15 01:35:11;;;;;;;4.18;2.80;;;;;;;10.79;100.00;101932.28;6205448;28;20057;-71
2023/09/15 01:38:12;;;;;;;8.63;2.25;;;;;;;10.79;100.00;101929.66;6205007;28;20358;-71
2023/09/15 01:41:14;;;;;;;3.80;2.50;;;;;;;10.80;100.00;101925.25;6205552;28;20066;-71
2023/09/15 01:44:15;;;;;;;4.60;2.72;;;;;;;10.86;100.00;101920.66;6205165;28;20047;-71
2023/09/15 01:47:22;;;;;;;9.63;3.90;;;;;;;10.91;100.00;101918.72;6205367;28;20054;-71
2023/09/15 01:50:25;;;;;;;5.82;2.85;;;;;;;10.89;100.00;101917.88;6204784;28;20057;-71
2023/09/15 01:53:27;;;;;;;4.50;2.38;;;;;;;10.78;100.00;101917.44;6205200;28;20050;-71
2023/09/15 01:56:29;;;;;;;3.45;2.30;;;;;;;10.77;100.00;101920.13;6204979;28;20046;-71
2023/09/15 01:59:30;;;;;;;3.53;2.28;;;;;;;10.69;100.00;101911.63;6204707;28;20054;-71
2023/09/15 02:02:33;;;;;;;2.65;2.28;;;;;;;10.65;100.00;101909.09;6204035;28;20062;-71
2023/09/15 02:05:35;;;;;;;6.43;1.90;;;;;;;10.67;100.00;101911.66;6204799;28;20046;-71
2023/09/15 02:08:36;;;;;;;3.80;1.83;;;;;;;10.67;100.00;101906.41;6204344;28;20054;-71
2023/09/15 02:11:38;;;;;;;4.38;2.53;;;;;;;10.65;100.00;101897.72;6204620;28;20053;-71
2023/09/15 02:14:39;;;;;;;5.82;2.20;;;;;;;10.59;100.00;101900.59;6203895;28;20046;-71
2023/09/15 02:17:43;;;;;;;3.63;2.15;;;;;;;10.65;100.00;101903.84;6204543;28;20050;-71
2023/09/15 02:20:44;;;;;;;3.00;2.05;;;;;;;10.57;100.00;101900.63;6204397;28;20054;-71
2023/09/15 02:23:45;;;;;;;2.55;1.70;;;;;;;10.59;100.00;101893.56;6204418;28;20442;-71
2023/09/15 02:26:47;;;;;;;3.47;1.90;;;;;;;10.53;100.00;101898.16;6204209;28;20062;-71
2023/09/15 02:29:48;;;;;;;3.83;1.88;;;;;;;10.54;100.00;101892.88;6203930;28;20046;-69
2023/09/15 02:32:51;;;;;;;1.98;1.42;;;;;;;10.57;100.00;101890.09;6204103;28;20469;-69
2023/09/15 02:35:52;;;;;;;2.30;1.75;;;;;;;10.47;100.00;101886.09;6204302;28;20050;-69
2023/09/15 02:38:54;;;;;;;2.45;1.98;;;;;;;10.45;100.00;101879.19;6203728;28;20134;-69
2023/09/15 02:41:56;;;;;;;2.60;1.80;;;;;;;10.50;100.00;101879.88;6204073;28;20049;-69
2023/09/15 02:44:58;;;;;;;2.40;1.63;;;;;;;10.51;100.00;101868.44;6203839;28;20053;-69
2023/09/15 02:48:01;;;;;;;2.30;2.00;;;;;;;10.50;100.00;101879.88;6203730;28;20344;-69
2023/09/15 02:51:04;;;;;;;4.68;1.95;;;;;;;10.44;100.00;101877.44;6203625;28;20051;-69
2023/09/15 02:54:06;;;;;;;2.55;1.73;;;;;;;10.38;100.00;101870.63;6203629;28;20332;-69
2023/09/15 02:57:07;;;;;;;3.97;2.00;;;;;;;10.35;100.00;101863.72;6203592;28;20050;-69
2023/09/15 03:00:13;;;;;;;2.75;1.88;;;;;;;10.34;100.00;101864.63;6203150;28;20053;-69
2023/09/15 03:03:16;;;;;;;4.38;2.13;;;;;;;10.36;100.00;101867.22;6202972;28;20134;-69
2023/09/15 03:06:18;;;;;;;3.28;2.20;;;;;;;10.33;100.00;101873.44;6195306;28;20050;-69
2023/09/15 03:09:19;;;;;;;4.80;2.95;;;;;;;10.28;100.00;101872.72;6202980;28;20089;-70
2023/09/15 03:12:20;;;;;;;6.53;2.85;;;;;;;10.27;100.00;101865.75;6201996;28;20442;-70
2023/09/15 03:15:23;;;;;;;6.35;3.10;;;;;;;10.16;100.00;101873.97;6203071;28;20050;-71
2023/09/15 03:18:25;;;;;;;7.15;2.80;;;;;;;10.14;100.00;101870.53;6202740;28;20050;-71
2023/09/15 03:21:27;;;;;;;4.05;2.58;;;;;;;10.17;100.00;101872.19;6203112;28;20050;-70
2023/09/15 03:24:28;;;;;;;5.45;2.83;;;;;;;10.25;100.00;101866.72;6202736;28;20054;-69
2023/09/15 03:27:30;;;;;;;7.50;2.30;;;;;;;10.26;100.00;101855.28;6202824;28;20364;-71
2023/09/15 03:30:31;;;;;;;4.70;2.60;;;;;;;10.17;100.00;101869.56;6202591;28;20458;-69
2023/09/15 03:33:35;;;;;;;7.15;2.00;;;;;;;10.15;100.00;101860.88;6202506;28;20362;-70
2023/09/15 03:36:37;;;;;;;1.88;1.58;;;;;;;10.11;100.00;101856.63;6202661;28;20073;-69
2023/09/15 03:39:38;;;;;;;3.03;1.90;;;;;;;10.02;100.00;101857.81;6202175;28;20050;-72
2023/09/15 03:42:40;;;;;;;2.83;1.90;;;;;;;9.86;100.00;101859.22;6202726;28;20054;-71
2023/09/15 03:45:43;;;;;;;2.65;2.00;;;;;;;9.78;100.00;101856.00;6202370;28;20047;-71
2023/09/15 03:48:46;;;;;;;3.13;1.88;;;;;;;9.73;100.00;101853.50;6202104;28;20057;-69
2023/09/15 03:51:47;;;;;;;2.60;1.80;;;;;;;9.80;100.00;101848.91;6202424;28;20050;-71
2023/09/15 03:54:49;;;;;;;5.85;1.90;;;;;;;9.82;100.00;101850.59;6202451;28;20049;-71
2023/09/15 03:57:51;;;;;;;1.63;1.30;;;;;;;9.91;100.00;101852.06;6202174;28;20396;-71
2023/09/15 04:00:52;;;;;;;3.03;1.85;;;;;;;9.96;100.00;101854.53;6201956;28;20439;-70
2023/09/15 04:03:55;;;;;;;5.13;2.03;;;;;;;9.97;100.00;101843.97;6201915;28;20447;-69
2023/09/15 04:06:56;;;;;;;2.80;1.95;;;;;;;10.03;100.00;101850.78;6201991;28;20049;-69
2023/09/15 04:09:58;;;;;;;2.33;1.77;;;;;;;10.05;100.00;101847.22;6201426;28;20053;-69
2023/09/15 04:12:59;;;;;;;3.95;2.03;;;;;;;10.03;100.00;101849.00;6201804;28;20053;-69
2023/09/15 04:16:01;;;;;;;2.63;2.05;;;;;;;10.02;100.00;101851.69;6201960;28;20046;-71
2023/09/15 04:19:04;;;;;;;3.65;2.30;;;;;;;10.04;100.00;101847.28;6201392;28;20053;-71
2023/09/15 04:22:05;;;;;;;3.45;2.30;;;;;;;10.03;100.00;101848.16;6201886;28;20467;-69
2023/09/15 04:25:08;;;;;;;2.83;1.83;;;;;;;9.98;100.00;101839.56;6201183;28;20061;-71
2023/09/15 04:28:09;;;;;;;4.35;2.05;;;;;;;9.89;100.00;101852.09;6201676;28;20057;-71
2023/09/15 04:31:11;;;;;;;4.72;2.08;;;;;;;9.89;100.00;101851.22;6201411;28;20067;-70
2023/09/15 04:34:14;;;;;;;2.45;1.85;;;;;;;9.81;100.00;101848.00;6201383;28;20054;-70
2023/09/15 04:37:16;;;;;;;3.42;2.15;;;;;;;9.78;100.00;101851.59;6201569;28;20054;-71
2023/09/15 04:40:17;;;;;;;3.67;2.20;;;;;;;9.84;100.00;101842.66;6200988;28;20061;-71
2023/09/15 04:43:19;;;;;;;3.08;1.98;;;;;;;9.90;100.00;101853.84;6201313;28;20046;-70
2023/09/15 04:46:20;;;;;;;4.78;2.72;;;;;;;9.89;100.00;101848.59;6201155;28;20454;-70
2023/09/15 04:49:23;;;;;;;9.10;2.10;;;;;;;9.82;100.00;101850.59;6201062;28;20054;-71
2023/09/15 04:52:25;;;;;;;2.72;1.88;;;;;;;9.78;100.00;101859.47;6201235;28;20427;-69
2023/09/15 04:55:27;;;;;;;4.10;1.90;;;;;;;9.75;100.00;101854.31;6201443;28;20047;-70
2023/09/15 04:58:28;;;;;;;2.88;2.00;;;;;;;9.82;100.00;101853.22;6200726;28;20046;-70
2023/09/15 05:01:31;;;;;;;5.07;2.00;;;;;;;9.89;100.00;101853.84;6198131;28;20047;-70
2023/09/15 05:04:34;;;;;;;3.17;1.95;;;;;;;9.90;100.00;101858.19;6201129;28;20055;-71
2023/09/15 05:07:35;;;;;;;2.65;1.65;;;;;;;9.91;100.00;101852.91;6193651;28;20038;-70
2023/09/15 05:10:37;;;;;;;4.07;2.05;;;;;;;9.90;100.00;101853.84;6184244;28;20043;-70
2023/09/15 05:13:38;;;;;;;4.25;2.00;;;;;;;9.81;100.00;101854.13;6176654;28;20050;-70
2023/09/15 05:16:39;;;;;;;5.70;1.88;;;;;;;9.81;100.00;101854.13;6176854;28;20054;-70
2023/09/15 05:19:42;;;;;;;4.25;1.70;;;;;;;9.74;100.00;101852.59;6176401;28;20349;-69
2023/09/15 05:22:43;;;;;;;6.85;2.22;;;;;;;9.72;100.00;101857.06;6176754;28;20335;-70
2023/09/15 05:25:45;;;;;;;2.83;1.92;;;;;;;9.71;100.00;101855.31;6184299;28;20069;-71
2023/09/15 05:28:46;;;;;;;2.25;1.40;;;;;;;9.73;100.00;101853.50;6200522;28;20050;-71
2023/09/15 05:31:48;;;;;;;2.75;2.08;;;;;;;9.75;100.00;101843.81;6200335;28;20457;-70
2023/09/15 05:34:51;;;;;;;2.92;2.13;;;;;;;9.80;100.00;101848.91;6200843;28;20057;-69
2023/09/15 05:37:52;;;;;;;8.52;3.05;;;;;;;9.74;100.00;101846.50;6204355;28;20057;-70
2023/09/15 05:40:53;;;;;;;5.35;2.75;;;;;;;9.75;100.00;101854.31;6205154;28;20057;-70
2023/09/15 05:43:55;;;;;;;4.38;2.05;;;;;;;9.75;100.00;101858.69;6204962;28;20050;-71
2023/09/15 05:46:56;;;;;;;4.20;2.40;;;;;;;9.74;100.00;101865.72;6204682;28;20051;-69
2023/09/15 05:50:00;;;;;;;3.88;2.38;;;;;;;9.78;100.00;101871.75;6204651;28;20050;-69
2023/09/15 05:53:02;;;;;;;4.82;2.17;;;;;;;9.81;100.00;101869.88;6204651;28;20122;-69
2023/09/15 05:56:03;;;;;;;4.93;2.50;;;;;;;9.90;100.00;101868.69;6204933;28;20053;-69
2023/09/15 05:59:05;;;;;;;4.10;2.40;;;;;;;9.94;100.00;101870.31;6204342;28;20061;-69
2023/09/15 06:02:07;;;;;;;8.43;2.38;;;;;;;10.05;100.00;101870.00;6204800;28;20065;-69
2023/09/15 06:05:09;;;;;;;6.22;2.55;;;;;;;10.07;100.00;101868.16;6204337;28;20058;-69
2023/09/15 06:08:11;;;;;;;3.60;1.88;;;;;;;10.10;100.00;101866.28;6204384;28;20062;-69
2023/09/15 06:11:12;;;;;;;4.47;2.42;;;;;;;10.17;100.00;101869.56;6204010;28;20054;-69
2023/09/15 06:14:14;;;;;;;3.70;2.30;;;;;;;10.23;100.00;101864.13;6204584;28;20054;-69
2023/09/15 06:17:15;;;;;;;5.05;2.13;;;;;;;10.32;100.00;101863.84;6204938;28;20042;-71
2023/09/15 06:20:18;;;;;;;4.68;2.20;;;;;;;10.38;100.00;101866.25;6203883;28;20050;-69
2023/09/15 06:23:19;;;;;;;3.83;2.10;;;;;;;10.43;100.00;101860.81;6204203;28;20050;-69
2023/09/15 06:26:21;;;;;;;4.95;2.85;;;;;;;10.53;100.00;101871.88;6203601;28;20186;-69
2023/09/15 06:29:22;;;;;;;4.88;2.78;;;;;;;10.58;100.00;101869.94;6203532;28;20062;-69
2023/09/15 06:32:24;;;;;;;4.95;2.40;;;;;;;10.67;100.00;101877.50;6201279;28;20050;-69
2023/09/15 06:35:27;;;;;;;6.03;2.03;;;;;;;10.72;100.00;101870.31;6204011;28;20042;-69
2023/09/15 06:38:31;;;;;;;3.42;2.33;;;;;;;10.80;100.00;101868.25;6203657;28;20051;-71
2023/09/15 06:41:32;;;;;;;3.67;2.28;;;;;;;10.91;100.00;101873.16;6203990;28;20054;-69
2023/09/15 06:44:36;;;;;;;4.60;2.63;;;;;;;11.00;100.00;101867.53;6203973;28;20435;-70
2023/09/15 06:47:38;;;;;;;5.45;2.42;;;;;;;11.04;100.00;101865.66;6203761;28;20046;-71
2023/09/15 06:50:41;;;;;;;5.53;1.95;;;;;;;11.12;100.00;101867.06;6203122;28;20074;-72
2023/09/15 06:53:42;;;;;;;6.85;2.65;;;;;;;11.21;100.00;101868.50;6203935;28;20050;-71
2023/09/15 06:56:44;;;;;;;4.85;2.42;;;;;;;11.29;100.00;101868.22;6203685;28;20053;-71
2023/09/15 06:59:45;;;;;;;5.20;2.55;;;;;;;11.37;100.00;101866.16;6201652;28;20343;-71
2023/09/15 07:02:47;;;;;;;7.00;2.38;;;;;;;11.42;100.00;101867.69;6202452;28;20050;-71
2023/09/15 07:05:49;;;;;;;5.80;1.98;;;;;;;11.53;100.00;101866.41;6199758;28;20043;-80
2023/09/15 07:08:51;;;;;;;3.75;2.35;;;;;;;11.54;100.00;101865.50;6201109;28;20046;-71
2023/09/15 07:11:52;;;;;;;4.43;2.00;;;;;;;11.58;100.00;101854.78;6202880;28;20435;-71
2023/09/15 07:14:53;;;;;;;2.72;1.83;;;;;;;11.68;100.00;101857.91;6202035;28;20050;-70
2023/09/15 07:17:55;;;;;;;6.68;2.53;;;;;;;11.77;100.00;101851.41;6202695;28;20053;-71
2023/09/15 07:20:58;;;;;;;4.60;2.58;;;;;;;11.85;100.00;101854.59;6188617;28;20760;-70
2023/09/15 07:24:00;;;;;;;3.30;1.92;;;;;;;11.95;100.00;101855.09;6189000;28;20053;-71
2023/09/15 07:27:02;;;;;;;7.80;2.15;;;;;;;12.10;100.00;101855.31;6191011;28;20046;-71
2023/09/15 07:30:05;;;;;;;3.45;2.28;;;;;;;12.18;100.00;101847.94;6189346;28;20557;-71
2023/09/15 07:33:06;;;;;;;4.07;2.03;;;;;;;12.21;100.00;101851.34;6196448;28;20058;-71
2023/09/15 07:36:09;;;;;;;3.58;2.20;;;;;;;12.23;100.00;101847.75;6202466;28;20354;-71
2023/09/15 07:39:11;;;;;;;5.28;2.00;;;;;;;12.32;100.00;101842.09;6201968;28;20057;-71
2023/09/15 07:42:12;;;;;;;7.95;2.13;;;;;;;12.42;100.00;101845.19;6202325;28;20046;-71
2023/09/15 07:45:14;;;;;;;4.55;1.88;;;;;;;12.47;100.00;101847.63;6202325;28;20110;-70
2023/09/15 07:48:15;;;;;;;7.40;1.88;;;;;;;12.57;100.00;101846.28;6201884;28;20042;-71
2023/09/15 07:51:19;;;;;;;3.55;2.05;;;;;;;12.62;100.00;101837.22;6202021;28;20050;-71
2023/09/15 07:54:21;;;;;;;2.53;1.48;;;;;;;12.68;100.00;101847.53;6199779;28;20053;-71
2023/09/15 07:57:22;;;;;;;6.25;2.10;;;;;;;12.74;100.00;101842.91;6189311;28;20043;-71
2023/09/15 08:00:24;;;;;;;4.50;1.83;;;;;;;12.82;100.00;101838.16;6196869;28;20046;-70
2023/09/15 08:03:25;;;;;;;4.05;1.50;;;;;;;12.93;100.00;101835.84;6201637;28;20046;-71
2023/09/15 08:06:28;;;;;;;2.78;2.00;;;;;;;12.98;100.00;101827.72;6201270;28;20057;-70
2023/09/15 08:09:30;;;;;;;3.15;1.45;;;;;;;13.07;100.00;101827.31;6192285;28;20042;-70
2023/09/15 08:12:31;;;;;;;2.90;1.73;;;;;;;13.18;100.00;101833.81;6200057;28;20058;-76
2023/09/15 08:15:33;;;;;;;6.28;1.83;;;;;;;13.29;100.00;101828.06;6198534;28;20058;-75
2023/09/15 08:18:34;;;;;;;3.08;1.50;;;;;;;13.33;100.00;101828.75;6196263;28;20053;-70
2023/09/15 08:21:38;;;;;;;4.20;1.85;;;;;;;13.43;100.00;101833.53;6201645;28;20046;-69
2023/09/15 08:24:40;;;;;;;4.85;1.85;;;;;;;13.47;100.00;101823.69;6199433;28;20427;-68
2023/09/15 08:27:44;;;;;;;8.20;1.80;;;;;;;13.60;100.00;101821.31;6198392;28;20343;-69
2023/09/15 08:30:46;;;;;;;4.95;1.67;;;;;;;13.68;100.00;101824.44;6198028;28;20053;-68
2023/09/15 08:33:48;;;;;;;4.50;2.10;;;;;;;13.80;100.00;101815.88;6195718;28;20149;-68
2023/09/15 08:36:50;;;;;;;6.32;2.00;;;;;;;13.92;100.00;101817.91;6195416;28;20046;-68
2023/09/15 08:39:52;;;;;;;8.80;2.35;;;;;;;14.05;100.00;101814.66;6191492;28;20077;-68
2023/09/15 08:42:53;;;;;;;4.07;2.13;;;;;;;14.17;100.00;101816.66;6197440;28;20061;-68
2023/09/15 08:45:56;;;;;;;2.28;1.52;;;;;;;14.21;100.00;101808.50;6189265;28;20046;-69
2023/09/15 08:48:59;;;;;;;3.63;1.35;;;;;;;14.31;100.00;101815.97;6188313;28;20419;-68
2023/09/15 08:52:04;;;;;;;7.00;2.00;;;;;;;14.43;100.00;101823.25;6188366;28;20355;-69
2023/09/15 08:55:07;;;;;;;5.13;1.60;;;;;;;14.49;100.00;101811.53;6185102;28;20038;-68
2023/09/15 08:58:09;;;;;;;2.85;1.48;;;;;;;14.57;100.00;101815.47;6195843;28;20062;-68
2023/09/15 09:01:11;;;;;;;3.70;2.00;;;;;;;14.61;100.00;101803.81;6199617;28;20046;-68
2023/09/15 09:04:13;;;;;;;7.38;2.15;;;;;;;14.71;100.00;101804.16;6200666;28;20462;-68
2023/09/15 09:07:17;;;;;;;6.43;2.15;;;;;;;14.86;100.00;101807.78;6199420;28;20042;-67
2023/09/15 09:10:18;;;;;;;2.65;1.52;;;;;;;14.89;100.00;101797.88;6199876;28;20422;-70
2023/09/15 09:13:21;;;;;;;3.88;1.83;;;;;;;14.98;100.00;101797.38;6204321;28;20050;-68
2023/09/15 09:16:23;;;;;;;2.70;1.77;;;;;;;15.10;100.00;101795.84;6205226;28;20443;-68
2023/09/15 09:19:35;;;;;;;7.85;1.77;;;;;;;15.15;100.00;101791.16;6196192;28;20350;-68
2023/09/15 09:22:38;;;;;;;4.15;1.85;;;;;;;15.29;100.00;101786.88;6195350;28;20043;-69
2023/09/15 09:25:39;;;;;;;4.47;1.75;;;;;;;15.35;100.00;101789.16;6197727;28;20042;-69
2023/09/15 09:28:41;;;;;;;2.90;1.73;;;;;;;15.39;100.00;101788.91;6202081;28;20121;-69
2023/09/15 09:31:42;;;;;;;5.13;1.85;;;;;;;15.45;100.00;101787.72;6202025;28;20340;-69
2023/09/15 09:34:49;;;;;;;4.57;1.67;;;;;;;15.50;100.00;101783.00;6193459;28;20065;-69
2023/09/15 09:37:52;;;;;;;2.95;1.63;;;;;;;15.61;100.00;101774.44;6204591;28;20458;-68
2023/09/15 09:40:56;;;;;;;4.00;1.77;;;;;;;15.68;100.00;101768.72;6197256;28;20038;-68
2023/09/15 09:44:03;;;;;;;5.30;1.60;;;;;;;15.82;100.00;101772.38;6203040;28;20120;-69
2023/09/15 09:47:08;;;;;;;4.38;1.90;;;;;;;15.89;100.00;101769.25;6199159;28;20130;-68
2023/09/15 09:50:11;;;;;;;2.47;1.35;;;;;;;15.97;100.00;101769.66;6196216;28;20061;-69
2023/09/15 09:53:14;;;;;;;4.07;1.95;;;;;;;16.07;100.00;101771.75;6204246;28;20046;-69
2023/09/15 09:56:17;;;;;;;9.35;2.00;;;;;;;16.14;100.00;101760.69;6202599;28;20050;-69
2023/09/15 09:59:18;;;;;;;4.28;1.52;;;;;;;16.27;100.00;101762.59;6203429;28;20072;-69
2023/09/15 10:02:20;;;;;;;5.15;1.50;;;;;;;16.32;100.00;101755.22;6204007;28;20054;-69
2023/09/15 10:05:22;;;;;;;7.63;2.40;;;;;;;16.44;100.00;101757.97;6204650;28;20057;-69
2023/09/15 10:08:26;;;;;;;7.28;1.58;;;;;;;16.49;100.00;101761.19;6203134;28;20061;-69
2023/09/15 10:11:28;;;;;;;4.35;1.52;;;;;;;16.58;100.00;101756.22;6196392;28;20054;-70
2023/09/15 10:14:30;;;;;;;3.75;1.45;;;;;;;16.63;100.00;101751.50;6203360;28;20057;-69
2023/09/15 10:17:34;;;;;;;6.68;2.70;;;;;;;16.77;100.00;101751.53;6192684;28;20054;-70
2023/09/15 10:20:38;;;;;;;7.45;2.10;;;;;;;16.87;100.00;101739.38;6197767;28;20046;-69
2023/09/15 10:23:41;;;;;;;4.03;1.73;;;;;;;16.96;100.00;101737.94;6203249;28;20073;-70
2023/09/15 10:26:43;;;;;;;3.53;1.65;;;;;;;17.01;100.00;101741.13;6194441;28;20046;-69
2023/09/15 10:29:47;;;;;;;3.95;1.60;;;;;;;17.08;100.00;101736.25;6195392;28;20367;-71
2023/09/15 10:32:53;;;;;;;4.68;2.08;;;;;;;17.15;100.00;101741.09;6202787;28;20061;-71
2023/09/15 10:36:01;;;;;;;4.97;2.40;;;;;;;17.22;100.00;101742.41;6203663;28;20058;-71
2023/09/15 10:39:14;;;;;;;3.03;1.70;;;;;;;17.32;100.00;101733.84;6198316;28;20047;-72
2023/09/15 10:42:16;;;;;;;4.38;2.00;;;;;;;17.38;100.00;101733.41;6200903;28;20043;-70
2023/09/15 10:45:18;;;;;;;2.15;1.50;;;;;;;17.49;100.00;101723.78;6203310;28;20512;-70
2023/09/15 10:48:20;;;;;;;3.67;1.70;;;;;;;17.63;100.00;101727.34;6191257;28;20055;-71
2023/09/15 10:51:22;;;;;;;2.58;1.55;;;;;;;17.77;100.00;101726.44;6179690;28;20467;-71
2023/09/15 10:54:27;;;;;;;3.03;1.50;;;;;;;17.79;100.00;101716.53;6179303;28;20051;-70
2023/09/15 10:57:29;;;;;;;2.38;1.45;;;;;;;17.90;100.00;101714.84;6179602;28;20438;-71
2023/09/15 11:00:30;;;;;;;2.40;1.55;;;;;;;18.12;100.00;101714.22;6179021;28;20055;-71
2023/09/15 11:03:33;;;;;;;3.40;1.42;;;;;;;18.14;100.00;101706.97;6179191;28;20051;-71
2023/09/15 11:06:35;;;;;;;3.42;2.00;;;;;;;18.16;100.00;101710.34;6179103;28;20046;-71
2023/09/15 11:09:41;;;;;;;4.47;1.75;;;;;;;18.26;100.00;101705.28;6178684;28;20051;-71
2023/09/15 11:12:43;;;;;;;10.48;2.33;;;;;;;18.35;100.00;101698.41;6179233;28;20073;-71
2023/09/15 11:15:46;;;;;;;3.28;1.70;;;;;;;18.51;100.00;101699.03;6178826;28;20062;-71
2023/09/15 11:18:47;;;;;;;4.25;1.88;;;;;;;18.64;100.00;101705.19;6178509;28;20055;-71
2023/09/15 11:21:49;;;;;;;2.25;1.70;;;;;;;18.83;100.00;101695.91;6178708;28;20065;-71
2023/09/15 11:24:53;;;;;;;1.98;1.33;;;;;;;18.93;100.00;101684.44;6193554;28;20057;-70
2023/09/15 11:27:54;;;;;;;2.38;1.33;;;;;;;19.09;100.00;101694.84;6202458;28;20050;-71
2023/09/15 11:30:56;;;;;;;3.15;1.92;;;;;;;19.27;100.00;101689.94;6202630;28;20057;-70
2023/09/15 11:33:59;;;;;;;2.53;1.60;;;;;;;19.45;100.00;101683.22;6201648;28;20133;-71
2023/09/15 11:37:01;;;;;;;6.47;1.63;;;;;;;19.65;100.00;101676.41;6202782;28;20046;-71
2023/09/15 11:40:07;;;;;;;5.25;1.77;;;;;;;19.81;100.00;101681.41;6202252;28;20057;-69
2023/09/15 11:43:08;;;;;;;4.68;1.60;;;;;;;19.99;100.00;101679.97;6202420;28;20055;-68
2023/09/15 11:46:11;;;;;;;4.53;1.75;;;;;;;20.23;100.00;101682.53;6202472;28;20073;-68
2023/09/15 11:49:13;;;;;;;3.92;1.63;;;;;;;20.46;100.00;101690.53;6201134;28;20047;-68
2023/09/15 11:52:15;;;;;;;2.60;1.70;;;;;;;20.67;100.00;101675.50;6202043;28;20351;-68
2023/09/15 11:55:20;;;;;;;5.28;1.98;;;;;;;20.83;100.00;101675.06;6202241;28;20061;-68
2023/09/15 11:58:22;;;;;;;6.50;1.42;;;;;;;21.02;100.00;101666.38;6202377;28;20046;-68
2023/09/15 12:01:23;;;;;;;3.45;1.67;;;;;;;21.19;100.00;101670.34;6201902;28;20056;-67
2023/09/15 12:04:25;;;;;;;2.03;1.50;;;;;;;21.40;100.00;101662.38;6202316;28;20047;-69
2023/09/15 12:07:27;;;;;;;3.00;1.63;;;;;;;21.56;100.00;101653.88;6201801;28;20050;-69
2023/09/15 12:10:30;;;;;;;5.00;1.63;;;;;;;21.66;100.00;101661.00;6201525;28;20050;-70
2023/09/15 12:13:36;;;;;;;3.72;1.50;;;;;;;21.84;100.00;101658.56;6201123;28;20073;-69
2023/09/15 12:16:38;;;;;;;3.33;1.42;;;;;;;22.00;100.00;101647.38;6201033;28;20324;-70
2023/09/15 12:19:39;;;;;;;3.85;2.00;;;;;;;22.08;100.00;101644.88;6201286;28;20046;-69
2023/09/15 12:22:42;;;;;;;3.33;1.58;;;;;;;22.21;100.00;101640.19;6201532;28;20046;-69
2023/09/15 12:25:45;;;;;;;4.43;2.05;;;;;;;22.36;100.00;101642.47;6201719;28;20050;-69
2023/09/15 12:28:47;;;;;;;3.40;1.58;;;;;;;22.52;100.00;101626.72;6201222;28;20435;-69
2023/09/15 12:31:49;;;;;;;2.25;1.80;;;;;;;22.69;100.00;101625.19;6201831;28;20101;-69
2023/09/15 12:34:50;;;;;;;3.50;1.70;;;;;;;22.76;100.00;101620.97;6201496;28;20137;-69
2023/09/15 12:37:53;;;;;;;2.05;1.17;;;;;;;22.83;100.00;101619.41;6201544;28;20065;-70
2023/09/15 12:40:56;;;;;;;16.92;2.08;;;;;;;22.99;100.00;101619.75;6201254;28;20050;-70
2023/09/15 12:43:57;;;;;;;3.05;1.63;;;;;;;23.03;100.00;101620.31;6201904;28;20050;-70
2023/09/15 12:46:59;;;;;;;1.98;1.40;;;;;;;23.10;100.00;101617.91;6205792;28;20134;-69
2023/09/15 12:50:00;;;;;;;4.20;1.50;;;;;;;23.27;100.00;101617.19;6199112;28;20056;-72
2023/09/15 12:53:02;;;;;;;3.05;1.20;;;;;;;23.43;100.00;101617.44;6204058;28;20042;-70
2023/09/15 12:56:05;;;;;;;4.05;1.42;;;;;;;23.54;100.00;101613.75;6203394;28;20058;-71
2023/09/15 12:59:06;;;;;;;5.05;1.55;;;;;;;23.73;100.00;101612.88;6205637;28;20347;-72
2023/09/15 13:02:08;;;;;;;3.35;1.45;;;;;;;23.78;100.00;101605.22;6205877;28;20058;-72
2023/09/15 13:05:11;;;;;;;3.33;1.33;;;;;;;23.86;100.00;101610.72;6206013;28;20045;-71
2023/09/15 13:08:13;;;;;;;2.03;1.20;;;;;;;24.00;100.00;101601.31;6205613;28;20066;-70
2023/09/15 13:11:16;;;;;;;2.40;1.33;;;;;;;24.05;100.00;101593.66;6249939;23;20042;-74
2023/09/15 13:14:17;;;;;;;2.55;1.42;;;;;;;24.10;100.00;101588.69;6207392;28;20054;-75
2023/09/15 13:17:19;;;;;;;3.60;1.38;;;;;;;24.17;100.00;101591.63;6205896;28;20081;-75
2023/09/15 13:20:21;;;;;;;9.23;1.50;;;;;;;24.11;100.00;101587.69;6191127;28;20062;-73
2023/09/15 13:23:22;;;;;;;2.97;1.58;;;;;;;24.07;100.00;101585.44;6205802;28;20049;-74
2023/09/15 13:26:25;;;;;;;2.85;1.25;;;;;;;24.34;100.00;101568.47;6206858;28;20445;-73
2023/09/15 13:29:27;;;;;;;1.48;1.10;;;;;;;24.33;100.00;101566.78;6202680;28;20053;-73
2023/09/15 13:32:28;;;;;;;2.55;1.60;;;;;;;24.50;100.00;101571.38;6191989;28;20462;-73
2023/09/15 13:35:30;;;;;;;2.30;1.48;;;;;;;24.71;100.00;101571.94;6193652;28;20054;-73
2023/09/15 13:38:31;;;;;;;3.55;1.90;;;;;;;24.66;100.00;101566.13;6196565;28;20043;-73
2023/09/15 13:41:34;;;;;;;2.70;1.50;;;;;;;24.49;100.00;101562.47;6181247;28;20138;-73
2023/09/15 13:44:36;;;;;;;1.75;1.20;;;;;;;24.61;100.00;101557.69;6181076;28;20050;-73
2023/09/15 13:47:37;;;;;;;2.15;1.27;;;;;;;24.67;100.00;101548.19;6181096;28;20048;-73
2023/09/15 13:50:38;;;;;;;2.13;1.30;;;;;;;24.73;100.00;101553.78;6180499;28;20328;-73
2023/09/15 13:53:40;;;;;;;4.68;1.60;;;;;;;24.96;100.00;101553.31;6181151;28;20059;-73
2023/09/15 13:56:43;;;;;;;4.18;1.38;;;;;;;24.51;100.00;101555.09;6185210;28;20354;-73
2023/09/15 13:59:44;;;;;;;2.85;1.27;;;;;;;23.86;100.00;101556.19;6204850;28;20046;-74
2023/09/15 14:02:46;;;;;;;6.43;1.50;;;;;;;23.88;100.00;101555.00;6198446;28;20054;-73